Standard, California
Current Conditions -  °F | °C
As of 10:35 AM on Friday 31 Oct 2014 (Local Time) from KO22 Reporting Station
Clear Clear  
Wind Chill: 61°   Ceiling: Unl
Heat Index: 61°   Visibility: 10mi
Dew Point: 46°   Wind: 10mph
Humidity: 59%   Direction: 170°S
Pressure: 29.89"   Gusts: NA
Location:  37.97°N, 120.31°W
Report Text: KO22 311735Z AUTO 17009KT 120V190 10SM CLR 16/08 A2989 RMK AO1
Loading
Personal Weather Stations






























Interactive Weather Map New forecast layout! Learn more

10-Day Weather Forecast

Advertisements
Track Severe Weather on mobile